Shipu, China
Current Conditions -  °F | °C
As of 7:00 AM on Thursday 23 Oct 2014 (Local Time) from ZSNB Reporting Station
Haze Haze  
Wind Chill: 59°   Ceiling: Unl
Heat Index: 59°   Visibility: 2.5mi
Dew Point: 57°   Wind: 2mph
Humidity: 94%   Direction: NA
Pressure: 30.18"   Gusts: NA
Location:  29.2°N, 121.95°E
Report Text: ZSNB 222300Z VRB01MPS 4000 BR FEW040 15/14 Q1022 NOSIG
Loading
Personal Weather Stations






























Interactive Weather Map
Tropical Storm Tracking
New forecast layout! Learn more

10-Day Weather Forecast

Advertisements
Track Severe Weather on mobile